sensor_id;sensor_type;location;lat;lon;timestamp;P1;durP1;ratioP1;P2;durP2;ratioP2
16115;SDS011;8162;47.104;15.432;2023-04-01T00:00:25;4.30;;;3.90;;
16115;SDS011;8162;47.104;15.432;2023-04-01T00:03:27;4.87;;;3.87;;
16115;SDS011;8162;47.104;15.432;2023-04-01T00:06:28;7.73;;;5.73;;
16115;SDS011;8162;47.104;15.432;2023-04-01T00:09:30;5.97;;;4.97;;
16115;SDS011;8162;47.104;15.432;2023-04-01T00:12:31;5.13;;;4.70;;
16115;SDS011;8162;47.104;15.432;2023-04-01T00:15:32;4.30;;;3.73;;
16115;SDS011;8162;47.104;15.432;2023-04-01T00:18:34;5.83;;;4.13;;
16115;SDS011;8162;47.104;15.432;2023-04-01T00:21:35;4.30;;;3.90;;
16115;SDS011;8162;47.104;15.432;2023-04-01T00:24:37;4.20;;;3.80;;
16115;SDS011;8162;47.104;15.432;2023-04-01T00:27:38;4.13;;;3.33;;
16115;SDS011;8162;47.104;15.432;2023-04-01T00:30:39;4.60;;;4.13;;
16115;SDS011;8162;47.104;15.432;2023-04-01T00:33:40;4.53;;;3.37;;
16115;SDS011;8162;47.104;15.432;2023-04-01T00:36:41;6.77;;;4.30;;
16115;SDS011;8162;47.104;15.432;2023-04-01T00:39:42;4.37;;;4.00;;
16115;SDS011;8162;47.104;15.432;2023-04-01T00:42:44;4.63;;;4.10;;
16115;SDS011;8162;47.104;15.432;2023-04-01T00:45:46;3.90;;;3.60;;
16115;SDS011;8162;47.104;15.432;2023-04-01T00:48:48;4.57;;;3.50;;
16115;SDS011;8162;47.104;15.432;2023-04-01T00:51:52;3.97;;;3.67;;
16115;SDS011;8162;47.104;15.432;2023-04-01T00:54:55;4.13;;;3.73;;
16115;SDS011;8162;47.104;15.432;2023-04-01T00:57:58;4.83;;;4.33;;
16115;SDS011;8162;47.104;15.432;2023-04-01T01:00:59;4.37;;;3.97;;
16115;SDS011;8162;47.104;15.432;2023-04-01T01:04:01;4.00;;;3.70;;
16115;SDS011;8162;47.104;15.432;2023-04-01T01:07:15;3.13;;;2.83;;
16115;SDS011;8162;47.104;15.432;2023-04-01T01:10:26;3.70;;;3.40;;
16115;SDS011;8162;47.104;15.432;2023-04-01T01:13:34;3.60;;;3.30;;
16115;SDS011;8162;47.104;15.432;2023-04-01T01:16:39;4.00;;;3.70;;
16115;SDS011;8162;47.104;15.432;2023-04-01T01:38:34;3.63;;;3.10;;
16115;SDS011;8162;47.104;15.432;2023-04-01T01:41:35;3.47;;;3.17;;
16115;SDS011;8162;47.104;15.432;2023-04-01T01:44:38;4.03;;;3.73;;
16115;SDS011;8162;47.104;15.432;2023-04-01T01:47:41;3.90;;;3.53;;
16115;SDS011;8162;47.104;15.432;2023-04-01T01:50:43;3.83;;;3.43;;
16115;SDS011;8162;47.104;15.432;2023-04-01T01:53:45;3.10;;;2.80;;
16115;SDS011;8162;47.104;15.432;2023-04-01T01:56:47;3.67;;;3.27;;
16115;SDS011;8162;47.104;15.432;2023-04-01T01:59:49;3.60;;;3.30;;
16115;SDS011;8162;47.104;15.432;2023-04-01T02:02:52;4.03;;;3.70;;
16115;SDS011;8162;47.104;15.432;2023-04-01T02:05:55;4.10;;;3.70;;
16115;SDS011;8162;47.104;15.432;2023-04-01T02:08:57;4.87;;;3.60;;
16115;SDS011;8162;47.104;15.432;2023-04-01T02:12:02;4.20;;;3.80;;
16115;SDS011;8162;47.104;15.432;2023-04-01T02:15:06;3.67;;;3.13;;
16115;SDS011;8162;47.104;15.432;2023-04-01T02:18:08;3.87;;;3.57;;
16115;SDS011;8162;47.104;15.432;2023-04-01T02:21:10;3.83;;;3.40;;
16115;SDS011;8162;47.104;15.432;2023-04-01T02:24:12;3.40;;;3.10;;
16115;SDS011;8162;47.104;15.432;2023-04-01T02:27:15;3.53;;;3.23;;
16115;SDS011;8162;47.104;15.432;2023-04-01T02:30:16;3.40;;;3.10;;
16115;SDS011;8162;47.104;15.432;2023-04-01T02:33:18;3.17;;;2.90;;
16115;SDS011;8162;47.104;15.432;2023-04-01T02:36:20;3.00;;;2.70;;
16115;SDS011;8162;47.104;15.432;2023-04-01T02:39:21;3.63;;;3.33;;
16115;SDS011;8162;47.104;15.432;2023-04-01T02:42:22;2.90;;;2.70;;
16115;SDS011;8162;47.104;15.432;2023-04-01T02:45:23;4.17;;;3.77;;
16115;SDS011;8162;47.104;15.432;2023-04-01T02:48:24;4.93;;;3.47;;
16115;SDS011;8162;47.104;15.432;2023-04-01T02:51:26;3.70;;;3.40;;
16115;SDS011;8162;47.104;15.432;2023-04-01T02:54:27;3.50;;;3.20;;
16115;SDS011;8162;47.104;15.432;2023-04-01T02:57:28;3.63;;;3.33;;
16115;SDS011;8162;47.104;15.432;2023-04-01T03:00:29;4.00;;;2.67;;
16115;SDS011;8162;47.104;15.432;2023-04-01T03:03:30;3.33;;;3.03;;
16115;SDS011;8162;47.104;15.432;2023-04-01T03:06:31;2.83;;;2.60;;
16115;SDS011;8162;47.104;15.432;2023-04-01T03:09:32;3.37;;;3.07;;
16115;SDS011;8162;47.104;15.432;2023-04-01T03:12:33;3.40;;;3.10;;
16115;SDS011;8162;47.104;15.432;2023-04-01T03:15:35;2.83;;;2.63;;
16115;SDS011;8162;47.104;15.432;2023-04-01T03:18:36;4.03;;;3.60;;
16115;SDS011;8162;47.104;15.432;2023-04-01T03:21:37;3.50;;;2.80;;
16115;SDS011;8162;47.104;15.432;2023-04-01T03:24:38;3.33;;;3.03;;
16115;SDS011;8162;47.104;15.432;2023-04-01T03:27:39;2.87;;;2.67;;
16115;SDS011;8162;47.104;15.432;2023-04-01T03:30:40;2.90;;;2.60;;
16115;SDS011;8162;47.104;15.432;2023-04-01T03:33:42;3.00;;;2.37;;
16115;SDS011;8162;47.104;15.432;2023-04-01T03:36:43;3.03;;;2.80;;
16115;SDS011;8162;47.104;15.432;2023-04-01T03:39:44;2.77;;;2.57;;
16115;SDS011;8162;47.104;15.432;2023-04-01T03:42:45;2.87;;;2.63;;
16115;SDS011;8162;47.104;15.432;2023-04-01T03:45:47;3.77;;;2.77;;
16115;SDS011;8162;47.104;15.432;2023-04-01T03:48:48;2.73;;;2.50;;
16115;SDS011;8162;47.104;15.432;2023-04-01T03:51:49;3.80;;;2.90;;
16115;SDS011;8162;47.104;15.432;2023-04-01T03:54:50;2.90;;;2.20;;
16115;SDS011;8162;47.104;15.432;2023-04-01T03:57:51;2.63;;;2.43;;
16115;SDS011;8162;47.104;15.432;2023-04-01T04:00:52;2.93;;;2.70;;
16115;SDS011;8162;47.104;15.432;2023-04-01T04:03:53;2.80;;;2.47;;
16115;SDS011;8162;47.104;15.432;2023-04-01T04:06:54;3.03;;;2.83;;
16115;SDS011;8162;47.104;15.432;2023-04-01T04:09:55;3.07;;;2.77;;
16115;SDS011;8162;47.104;15.432;2023-04-01T04:12:56;3.70;;;2.73;;
16115;SDS011;8162;47.104;15.432;2023-04-01T04:15:58;4.20;;;3.83;;
16115;SDS011;8162;47.104;15.432;2023-04-01T04:18:59;5.07;;;3.00;;
16115;SDS011;8162;47.104;15.432;2023-04-01T04:22:00;3.33;;;3.03;;
16115;SDS011;8162;47.104;15.432;2023-04-01T04:25:01;2.90;;;2.70;;
16115;SDS011;8162;47.104;15.432;2023-04-01T04:28:02;4.50;;;3.43;;
16115;SDS011;8162;47.104;15.432;2023-04-01T04:31:03;2.90;;;2.70;;
16115;SDS011;8162;47.104;15.432;2023-04-01T04:34:05;2.57;;;2.33;;
16115;SDS011;8162;47.104;15.432;2023-04-01T04:37:06;2.40;;;2.20;;
16115;SDS011;8162;47.104;15.432;2023-04-01T04:40:07;3.83;;;2.90;;
16115;SDS011;8162;47.104;15.432;2023-04-01T04:43:12;3.27;;;2.97;;
16115;SDS011;8162;47.104;15.432;2023-04-01T04:46:13;3.37;;;2.67;;
16115;SDS011;8162;47.104;15.432;2023-04-01T04:49:14;2.73;;;2.53;;
16115;SDS011;8162;47.104;15.432;2023-04-01T04:52:16;2.80;;;2.60;;
16115;SDS011;8162;47.104;15.432;2023-04-01T04:55:17;3.30;;;2.57;;
16115;SDS011;8162;47.104;15.432;2023-04-01T04:58:18;4.03;;;2.77;;
16115;SDS011;8162;47.104;15.432;2023-04-01T05:01:19;4.07;;;3.37;;
16115;SDS011;8162;47.104;15.432;2023-04-01T05:04:20;3.13;;;2.87;;
16115;SDS011;8162;47.104;15.432;2023-04-01T05:07:21;3.60;;;2.87;;
16115;SDS011;8162;47.104;15.432;2023-04-01T05:10:22;4.53;;;2.83;;
16115;SDS011;8162;47.104;15.432;2023-04-01T05:13:23;3.10;;;2.87;;
16115;SDS011;8162;47.104;15.432;2023-04-01T05:16:24;3.40;;;2.63;;
16115;SDS011;8162;47.104;15.432;2023-04-01T05:19:26;4.00;;;3.27;;
16115;SDS011;8162;47.104;15.432;2023-04-01T05:22:27;3.13;;;2.70;;
16115;SDS011;8162;47.104;15.432;2023-04-01T05:25:28;3.77;;;2.77;;
16115;SDS011;8162;47.104;15.432;2023-04-01T05:28:29;2.50;;;2.30;;
16115;SDS011;8162;47.104;15.432;2023-04-01T05:31:30;4.47;;;2.93;;
16115;SDS011;8162;47.104;15.432;2023-04-01T05:34:31;2.70;;;2.50;;
16115;SDS011;8162;47.104;15.432;2023-04-01T05:37:35;2.87;;;2.67;;
16115;SDS011;8162;47.104;15.432;2023-04-01T05:40:37;3.93;;;2.93;;
16115;SDS011;8162;47.104;15.432;2023-04-01T05:43:38;2.90;;;2.60;;
16115;SDS011;8162;47.104;15.432;2023-04-01T05:46:40;3.57;;;3.00;;
16115;SDS011;8162;47.104;15.432;2023-04-01T05:49:41;3.03;;;2.73;;
16115;SDS011;8162;47.104;15.432;2023-04-01T05:52:42;3.03;;;2.80;;
16115;SDS011;8162;47.104;15.432;2023-04-01T05:55:44;3.10;;;2.80;;
16115;SDS011;8162;47.104;15.432;2023-04-01T05:58:46;3.20;;;2.67;;
16115;SDS011;8162;47.104;15.432;2023-04-01T06:01:51;3.30;;;3.00;;
16115;SDS011;8162;47.104;15.432;2023-04-01T06:08:23;5.13;;;3.43;;
16115;SDS011;8162;47.104;15.432;2023-04-01T06:43:54;3.30;;;3.00;;
16115;SDS011;8162;47.104;15.432;2023-04-01T06:46:59;2.93;;;2.60;;
16115;SDS011;8162;47.104;15.432;2023-04-01T06:53:12;4.53;;;2.83;;
16115;SDS011;8162;47.104;15.432;2023-04-01T06:56:17;2.63;;;2.43;;
16115;SDS011;8162;47.104;15.432;2023-04-01T06:59:20;2.67;;;2.47;;
16115;SDS011;8162;47.104;15.432;2023-04-01T07:02:29;3.07;;;2.80;;
16115;SDS011;8162;47.104;15.432;2023-04-01T07:05:32;2.60;;;2.40;;
16115;SDS011;8162;47.104;15.432;2023-04-01T07:08:36;4.83;;;2.30;;
16115;SDS011;8162;47.104;15.432;2023-04-01T07:11:38;3.83;;;2.60;;
16115;SDS011;8162;47.104;15.432;2023-04-01T07:14:41;3.50;;;2.50;;
16115;SDS011;8162;47.104;15.432;2023-04-01T07:17:43;3.57;;;2.07;;
16115;SDS011;8162;47.104;15.432;2023-04-01T07:20:44;2.37;;;2.13;;
16115;SDS011;8162;47.104;15.432;2023-04-01T07:23:46;6.20;;;3.03;;
16115;SDS011;8162;47.104;15.432;2023-04-01T07:26:49;2.40;;;2.20;;
16115;SDS011;8162;47.104;15.432;2023-04-01T07:29:55;2.37;;;2.00;;
16115;SDS011;8162;47.104;15.432;2023-04-01T07:36:13;3.37;;;2.00;;
16115;SDS011;8162;47.104;15.432;2023-04-01T07:48:50;4.07;;;2.30;;
16115;SDS011;8162;47.104;15.432;2023-04-01T07:52:19;3.80;;;2.27;;
16115;SDS011;8162;47.104;15.432;2023-04-01T07:58:24;2.27;;;1.83;;
16115;SDS011;8162;47.104;15.432;2023-04-01T08:01:36;1.83;;;1.50;;
16115;SDS011;8162;47.104;15.432;2023-04-01T08:04:47;2.00;;;1.20;;
16115;SDS011;8162;47.104;15.432;2023-04-01T08:10:52;1.87;;;1.60;;
16115;SDS011;8162;47.104;15.432;2023-04-01T08:14:11;1.27;;;1.00;;
16115;SDS011;8162;47.104;15.432;2023-04-01T08:20:25;3.67;;;1.20;;
16115;SDS011;8162;47.104;15.432;2023-04-01T08:23:30;2.37;;;1.00;;
16115;SDS011;8162;47.104;15.432;2023-04-01T08:26:34;1.40;;;1.00;;
16115;SDS011;8162;47.104;15.432;2023-04-01T08:32:37;0.90;;;0.90;;
16115;SDS011;8162;47.104;15.432;2023-04-01T08:38:46;1.57;;;1.03;;
16115;SDS011;8162;47.104;15.432;2023-04-01T08:41:53;1.30;;;1.00;;
16115;SDS011;8162;47.104;15.432;2023-04-01T08:45:14;1.83;;;0.90;;
16115;SDS011;8162;47.104;15.432;2023-04-01T08:48:27;2.80;;;0.90;;
16115;SDS011;8162;47.104;15.432;2023-04-01T08:58:00;1.90;;;1.30;;
16115;SDS011;8162;47.104;15.432;2023-04-01T09:20:01;4.00;;;2.17;;
16115;SDS011;8162;47.104;15.432;2023-04-01T09:35:48;2.60;;;1.10;;
16115;SDS011;8162;47.104;15.432;2023-04-01T09:45:13;0.93;;;0.83;;
16115;SDS011;8162;47.104;15.432;2023-04-01T09:48:24;0.87;;;0.73;;
16115;SDS011;8162;47.104;15.432;2023-04-01T11:04:03;0.40;;;0.40;;
16115;SDS011;8162;47.104;15.432;2023-04-01T11:25:59;0.20;;;0.20;;
16115;SDS011;8162;47.104;15.432;2023-04-01T11:35:51;0.20;;;0.20;;
16115;SDS011;8162;47.104;15.432;2023-04-01T11:45:24;0.40;;;0.40;;
16115;SDS011;8162;47.104;15.432;2023-04-01T12:10:44;0.67;;;0.30;;
16115;SDS011;8162;47.104;15.432;2023-04-01T12:16:57;0.37;;;0.37;;
16115;SDS011;8162;47.104;15.432;2023-04-01T12:20:03;0.40;;;0.40;;
16115;SDS011;8162;47.104;15.432;2023-04-01T12:23:36;0.40;;;0.40;;
16115;SDS011;8162;47.104;15.432;2023-04-01T12:26:59;0.80;;;0.73;;
16115;SDS011;8162;47.104;15.432;2023-04-01T12:52:14;0.20;;;0.20;;
16115;SDS011;8162;47.104;15.432;2023-04-01T13:01:44;0.40;;;0.20;;
16115;SDS011;8162;47.104;15.432;2023-04-01T13:30:38;0.30;;;0.10;;
16115;SDS011;8162;47.104;15.432;2023-04-01T13:33:53;0.63;;;0.30;;
16115;SDS011;8162;47.104;15.432;2023-04-01T13:37:05;0.47;;;0.40;;
16115;SDS011;8162;47.104;15.432;2023-04-01T13:43:39;0.40;;;0.40;;
16115;SDS011;8162;47.104;15.432;2023-04-01T13:50:17;0.60;;;0.57;;
16115;SDS011;8162;47.104;15.432;2023-04-01T13:53:37;0.30;;;0.30;;
16115;SDS011;8162;47.104;15.432;2023-04-01T13:56:57;0.40;;;0.40;;
16115;SDS011;8162;47.104;15.432;2023-04-01T14:00:17;0.20;;;0.20;;
16115;SDS011;8162;47.104;15.432;2023-04-01T14:03:30;0.20;;;0.20;;
16115;SDS011;8162;47.104;15.432;2023-04-01T14:10:06;0.30;;;0.30;;
16115;SDS011;8162;47.104;15.432;2023-04-01T14:13:52;0.33;;;0.20;;
16115;SDS011;8162;47.104;15.432;2023-04-01T14:19:44;0.30;;;0.30;;
16115;SDS011;8162;47.104;15.432;2023-04-01T14:26:20;0.23;;;0.23;;
16115;SDS011;8162;47.104;15.432;2023-04-01T14:29:24;0.37;;;0.27;;
16115;SDS011;8162;47.104;15.432;2023-04-01T14:32:48;0.20;;;0.20;;
16115;SDS011;8162;47.104;15.432;2023-04-01T14:39:43;0.40;;;0.30;;
16115;SDS011;8162;47.104;15.432;2023-04-01T14:49:34;0.30;;;0.30;;
16115;SDS011;8162;47.104;15.432;2023-04-01T14:52:36;0.30;;;0.30;;
16115;SDS011;8162;47.104;15.432;2023-04-01T14:58:45;0.20;;;0.20;;
16115;SDS011;8162;47.104;15.432;2023-04-01T15:01:50;0.53;;;0.53;;
16115;SDS011;8162;47.104;15.432;2023-04-01T15:09:09;0.73;;;0.30;;
16115;SDS011;8162;47.104;15.432;2023-04-01T15:12:36;2.47;;;0.57;;
16115;SDS011;8162;47.104;15.432;2023-04-01T15:22:25;0.97;;;0.30;;
16115;SDS011;8162;47.104;15.432;2023-04-01T15:25:51;0.27;;;0.27;;
16115;SDS011;8162;47.104;15.432;2023-04-01T15:39:04;0.30;;;0.30;;
16115;SDS011;8162;47.104;15.432;2023-04-01T15:42:54;0.87;;;0.50;;
16115;SDS011;8162;47.104;15.432;2023-04-01T15:49:22;0.40;;;0.40;;
16115;SDS011;8162;47.104;15.432;2023-04-01T16:03:37;1.20;;;0.57;;
16115;SDS011;8162;47.104;15.432;2023-04-01T16:06:50;0.50;;;0.47;;
16115;SDS011;8162;47.104;15.432;2023-04-01T16:23:25;0.40;;;0.40;;
16115;SDS011;8162;47.104;15.432;2023-04-01T16:26:34;0.40;;;0.40;;
16115;SDS011;8162;47.104;15.432;2023-04-01T16:30:03;0.40;;;0.40;;
16115;SDS011;8162;47.104;15.432;2023-04-01T16:34:01;0.80;;;0.60;;
16115;SDS011;8162;47.104;15.432;2023-04-01T16:38:08;1.30;;;0.60;;
16115;SDS011;8162;47.104;15.432;2023-04-01T16:44:19;0.30;;;0.30;;
16115;SDS011;8162;47.104;15.432;2023-04-01T16:47:22;2.03;;;0.50;;
16115;SDS011;8162;47.104;15.432;2023-04-01T16:50:30;0.73;;;0.50;;
16115;SDS011;8162;47.104;15.432;2023-04-01T16:53:45;0.67;;;0.30;;
16115;SDS011;8162;47.104;15.432;2023-04-01T16:56:49;1.17;;;0.40;;
16115;SDS011;8162;47.104;15.432;2023-04-01T16:59:55;0.60;;;0.40;;
16115;SDS011;8162;47.104;15.432;2023-04-01T17:29:13;2.77;;;1.90;;
16115;SDS011;8162;47.104;15.432;2023-04-01T17:35:56;5.50;;;2.90;;
16115;SDS011;8162;47.104;15.432;2023-04-01T17:52:10;9.67;;;5.53;;
16115;SDS011;8162;47.104;15.432;2023-04-01T17:58:22;8.50;;;6.43;;
16115;SDS011;8162;47.104;15.432;2023-04-01T18:01:46;6.07;;;3.60;;
16115;SDS011;8162;47.104;15.432;2023-04-01T18:20:58;1.50;;;0.70;;
16115;SDS011;8162;47.104;15.432;2023-04-01T18:24:14;0.87;;;0.80;;
16115;SDS011;8162;47.104;15.432;2023-04-01T18:27:22;1.63;;;0.87;;
16115;SDS011;8162;47.104;15.432;2023-04-01T18:30:30;0.60;;;0.60;;
16115;SDS011;8162;47.104;15.432;2023-04-01T18:39:48;1.43;;;0.93;;
16115;SDS011;8162;47.104;15.432;2023-04-01T18:43:00;1.77;;;0.70;;
16115;SDS011;8162;47.104;15.432;2023-04-01T18:46:22;1.10;;;0.63;;
16115;SDS011;8162;47.104;15.432;2023-04-01T18:49:27;1.30;;;0.90;;
16115;SDS011;8162;47.104;15.432;2023-04-01T18:52:34;2.00;;;1.37;;
16115;SDS011;8162;47.104;15.432;2023-04-01T18:55:41;0.97;;;0.87;;
16115;SDS011;8162;47.104;15.432;2023-04-01T19:05:04;0.80;;;0.63;;
16115;SDS011;8162;47.104;15.432;2023-04-01T19:14:37;1.87;;;1.30;;
16115;SDS011;8162;47.104;15.432;2023-04-01T19:45:52;3.93;;;1.40;;
16115;SDS011;8162;47.104;15.432;2023-04-01T19:52:01;2.37;;;1.10;;
16115;SDS011;8162;47.104;15.432;2023-04-01T19:55:13;3.40;;;1.03;;
16115;SDS011;8162;47.104;15.432;2023-04-01T20:01:22;0.80;;;0.80;;
16115;SDS011;8162;47.104;15.432;2023-04-01T20:04:37;1.13;;;0.97;;
16115;SDS011;8162;47.104;15.432;2023-04-01T20:07:43;2.90;;;1.17;;
16115;SDS011;8162;47.104;15.432;2023-04-01T20:14:35;2.87;;;1.30;;
16115;SDS011;8162;47.104;15.432;2023-04-01T20:17:44;3.97;;;1.50;;
16115;SDS011;8162;47.104;15.432;2023-04-01T20:21:46;2.43;;;1.40;;
16115;SDS011;8162;47.104;15.432;2023-04-01T20:24:21;2.53;;;2.07;;
16115;SDS011;8162;47.104;15.432;2023-04-01T20:27:27;5.17;;;3.07;;
16115;SDS011;8162;47.104;15.432;2023-04-01T20:40:44;2.53;;;2.03;;
16115;SDS011;8162;47.104;15.432;2023-04-01T20:44:12;2.47;;;1.67;;
16115;SDS011;8162;47.104;15.432;2023-04-01T20:50:41;2.57;;;1.73;;
16115;SDS011;8162;47.104;15.432;2023-04-01T20:57:24;3.50;;;2.97;;
16115;SDS011;8162;47.104;15.432;2023-04-01T21:03:39;5.30;;;4.53;;
16115;SDS011;8162;47.104;15.432;2023-04-01T21:07:15;6.13;;;4.93;;
16115;SDS011;8162;47.104;15.432;2023-04-01T21:14:25;4.33;;;3.50;;
16115;SDS011;8162;47.104;15.432;2023-04-01T21:21:02;5.37;;;3.77;;
16115;SDS011;8162;47.104;15.432;2023-04-01T21:30:17;3.97;;;2.83;;
16115;SDS011;8162;47.104;15.432;2023-04-01T21:43:32;5.00;;;1.50;;
16115;SDS011;8162;47.104;15.432;2023-04-01T21:54:08;2.07;;;1.10;;
16115;SDS011;8162;47.104;15.432;2023-04-01T22:36:12;1.67;;;1.47;;
16115;SDS011;8162;47.104;15.432;2023-04-01T22:42:46;2.07;;;1.77;;
16115;SDS011;8162;47.104;15.432;2023-04-01T22:49:10;2.63;;;2.10;;
16115;SDS011;8162;47.104;15.432;2023-04-01T22:52:29;1.90;;;1.70;;
16115;SDS011;8162;47.104;15.432;2023-04-01T22:55:32;3.83;;;1.43;;
16115;SDS011;8162;47.104;15.432;2023-04-01T22:58:36;2.03;;;1.40;;
16115;SDS011;8162;47.104;15.432;2023-04-01T23:01:41;1.50;;;1.17;;
16115;SDS011;8162;47.104;15.432;2023-04-01T23:04:45;1.80;;;1.30;;
16115;SDS011;8162;47.104;15.432;2023-04-01T23:10:54;1.77;;;1.37;;
16115;SDS011;8162;47.104;15.432;2023-04-01T23:17:39;1.53;;;1.17;;
16115;SDS011;8162;47.104;15.432;2023-04-01T23:21:29;2.03;;;1.47;;
16115;SDS011;8162;47.104;15.432;2023-04-01T23:24:19;1.93;;;1.40;;
16115;SDS011;8162;47.104;15.432;2023-04-01T23:27:32;3.37;;;1.47;;
16115;SDS011;8162;47.104;15.432;2023-04-01T23:33:39;1.80;;;1.30;;
16115;SDS011;8162;47.104;15.432;2023-04-01T23:36:44;1.57;;;1.10;;
16115;SDS011;8162;47.104;15.432;2023-04-01T23:39:48;1.30;;;1.00;;
16115;SDS011;8162;47.104;15.432;2023-04-01T23:42:50;1.27;;;1.17;;
16115;SDS011;8162;47.104;15.432;2023-04-01T23:45:52;1.50;;;1.20;;
16115;SDS011;8162;47.104;15.432;2023-04-01T23:48:53;1.40;;;1.30;;
16115;SDS011;8162;47.104;15.432;2023-04-01T23:51:58;1.97;;;1.53;;
16115;SDS011;8162;47.104;15.432;2023-04-01T23:55:08;1.77;;;1.23;;
16115;SDS011;8162;47.104;15.432;2023-04-01T23:58:18;1.20;;;1.10;;
